OSU35 KOSU-KTZR
Flight info
| Callsign | OSU35 |
|---|---|
| Flight time | 0h 32m |
| Altitude | VFR |
| Route | |
| Aircraft | C172/L-DOV/C |
Departure
| Time | 2026-05-09 02:39 |
|---|---|
| Airport | The Ohio State University Airport - Don Scott Field (KOSU) |
Arrival
| Time | 2026-05-09 03:11 |
|---|---|
| Airport | Bolton Field (KTZR) |
| Time | Latitude | Longitude | Altitude | Speed | Heading |
|---|---|---|---|---|---|
| 2026-05-09 02:19 | 40.07578 | -83.07485 | 905 ft | 0 kts | 0° |
| 2026-05-09 02:32 | 40.07603 | -83.07467 | 895 ft | 8 kts | 84° |
| 2026-05-09 02:33 | 40.07606 | -83.07348 | 905 ft | 16 kts | 77° |
| 2026-05-09 02:33 | 40.07617 | -83.07197 | 902 ft | 17 kts | 85° |
| 2026-05-09 02:33 | 40.07622 | -83.07046 | 902 ft | 16 kts | 87° |
| 2026-05-09 02:33 | 40.07628 | -83.06894 | 900 ft | 17 kts | 91° |
| 2026-05-09 02:34 | 40.07634 | -83.06727 | 896 ft | 19 kts | 88° |
| 2026-05-09 02:34 | 40.07641 | -83.06559 | 897 ft | 18 kts | 87° |
| 2026-05-09 02:34 | 40.07647 | -83.06425 | 896 ft | 13 kts | 74° |
| 2026-05-09 02:34 | 40.07682 | -83.06368 | 895 ft | 0 kts | 20° |
| 2026-05-09 02:35 | 40.07682 | -83.06367 | 895 ft | 0 kts | 20° |
| 2026-05-09 02:37 | 40.07700 | -83.06379 | 895 ft | 9 kts | 319° |
| 2026-05-09 02:37 | 40.07786 | -83.06400 | 893 ft | 12 kts | 270° |
| 2026-05-09 02:38 | 40.07774 | -83.06687 | 895 ft | 56 kts | 267° |
| 2026-05-09 02:38 | 40.07743 | -83.07353 | 962 ft | 83 kts | 269° |
| 2026-05-09 02:38 | 40.07713 | -83.08117 | 1189 ft | 83 kts | 266° |
| 2026-05-09 02:38 | 40.07638 | -83.08814 | 1426 ft | 79 kts | 264° |
| 2026-05-09 02:39 | 40.07558 | -83.09505 | 1685 ft | 76 kts | 264° |
| 2026-05-09 02:39 | 40.07517 | -83.10187 | 1931 ft | 74 kts | 264° |
| 2026-05-09 02:39 | 40.07491 | -83.10838 | 2201 ft | 70 kts | 264° |
| 2026-05-09 02:39 | 40.07464 | -83.11466 | 2410 ft | 69 kts | 264° |
| 2026-05-09 02:40 | 40.07442 | -83.12081 | 2628 ft | 67 kts | 264° |
| 2026-05-09 02:40 | 40.07431 | -83.12691 | 2832 ft | 67 kts | 264° |
| 2026-05-09 02:40 | 40.07427 | -83.13293 | 3055 ft | 66 kts | 264° |
| 2026-05-09 02:40 | 40.07435 | -83.13895 | 3263 ft | 67 kts | 264° |
| 2026-05-09 02:41 | 40.07445 | -83.14546 | 3388 ft | 76 kts | 264° |
| 2026-05-09 02:41 | 40.07447 | -83.15261 | 3506 ft | 81 kts | 266° |
| 2026-05-09 02:41 | 40.07462 | -83.16011 | 3631 ft | 83 kts | 264° |
| 2026-05-09 02:41 | 40.07282 | -83.16660 | 3737 ft | 81 kts | 219° |
| 2026-05-09 02:42 | 40.06801 | -83.17056 | 3847 ft | 83 kts | 220° |
| 2026-05-09 02:42 | 40.06309 | -83.17460 | 3948 ft | 84 kts | 219° |
| 2026-05-09 02:42 | 40.05805 | -83.17875 | 4054 ft | 87 kts | 218° |
| 2026-05-09 02:42 | 40.05298 | -83.18315 | 4150 ft | 88 kts | 218° |
| 2026-05-09 02:43 | 40.04798 | -83.18780 | 4247 ft | 88 kts | 220° |
| 2026-05-09 02:43 | 40.04306 | -83.19259 | 4347 ft | 88 kts | 219° |
| 2026-05-09 02:43 | 40.03816 | -83.19742 | 4453 ft | 88 kts | 219° |
| 2026-05-09 02:43 | 40.03328 | -83.20234 | 4518 ft | 91 kts | 220° |
| 2026-05-09 02:44 | 40.02805 | -83.20746 | 4524 ft | 96 kts | 220° |
| 2026-05-09 02:44 | 40.02270 | -83.21285 | 4530 ft | 98 kts | 219° |
| 2026-05-09 02:44 | 40.01744 | -83.21813 | 4523 ft | 93 kts | 219° |
| 2026-05-09 02:44 | 40.01244 | -83.22313 | 4516 ft | 89 kts | 219° |
| 2026-05-09 02:45 | 40.00754 | -83.22797 | 4518 ft | 88 kts | 219° |
| 2026-05-09 02:45 | 40.00273 | -83.23262 | 4516 ft | 87 kts | 219° |
| 2026-05-09 02:45 | 39.99786 | -83.23736 | 4506 ft | 88 kts | 221° |
| 2026-05-09 02:45 | 39.99306 | -83.24224 | 4507 ft | 87 kts | 219° |
| 2026-05-09 02:46 | 39.98827 | -83.24713 | 4502 ft | 88 kts | 220° |
| 2026-05-09 02:46 | 39.98348 | -83.25196 | 4500 ft | 86 kts | 220° |
| 2026-05-09 02:46 | 39.97871 | -83.25666 | 4481 ft | 86 kts | 220° |
| 2026-05-09 02:46 | 39.97397 | -83.26133 | 4352 ft | 87 kts | 220° |
| 2026-05-09 02:47 | 39.96912 | -83.26619 | 4198 ft | 88 kts | 220° |
| 2026-05-09 02:47 | 39.96428 | -83.27111 | 4055 ft | 88 kts | 220° |
| 2026-05-09 02:47 | 39.95941 | -83.27602 | 3917 ft | 89 kts | 220° |
| 2026-05-09 02:47 | 39.95448 | -83.28098 | 3790 ft | 89 kts | 220° |
| 2026-05-09 02:48 | 39.94952 | -83.28596 | 3653 ft | 91 kts | 219° |
| 2026-05-09 02:48 | 39.94454 | -83.29103 | 3533 ft | 91 kts | 219° |
| 2026-05-09 02:48 | 39.93953 | -83.29618 | 3405 ft | 92 kts | 220° |
| 2026-05-09 02:48 | 39.93503 | -83.30195 | 3281 ft | 93 kts | 247° |
| 2026-05-09 02:49 | 39.93732 | -83.30983 | 3167 ft | 109 kts | 319° |
| 2026-05-09 02:49 | 39.94495 | -83.31006 | 3052 ft | 122 kts | 27° |
| 2026-05-09 02:49 | 39.94917 | -83.30116 | 3003 ft | 114 kts | 85° |
| 2026-05-09 02:49 | 39.95070 | -83.29127 | 2997 ft | 109 kts | 83° |
| 2026-05-09 02:50 | 39.94867 | -83.28320 | 2988 ft | 88 kts | 160° |
| 2026-05-09 02:50 | 39.94320 | -83.28109 | 2997 ft | 82 kts | 170° |
| 2026-05-09 02:50 | 39.93780 | -83.27909 | 2989 ft | 80 kts | 172° |
| 2026-05-09 02:50 | 39.93254 | -83.27710 | 2989 ft | 77 kts | 173° |
| 2026-05-09 02:51 | 39.92743 | -83.27512 | 2991 ft | 78 kts | 172° |
| 2026-05-09 02:51 | 39.92179 | -83.27307 | 2997 ft | 92 kts | 173° |
| 2026-05-09 02:51 | 39.91518 | -83.27088 | 2999 ft | 102 kts | 173° |
| 2026-05-09 02:51 | 39.90815 | -83.26859 | 3004 ft | 107 kts | 173° |
| 2026-05-09 02:52 | 39.90080 | -83.26622 | 3004 ft | 110 kts | 173° |
| 2026-05-09 02:52 | 39.89335 | -83.26388 | 3008 ft | 110 kts | 173° |
| 2026-05-09 02:52 | 39.88602 | -83.26155 | 3003 ft | 107 kts | 173° |
| 2026-05-09 02:52 | 39.87888 | -83.25923 | 2995 ft | 104 kts | 173° |
| 2026-05-09 02:53 | 39.87185 | -83.25818 | 2994 ft | 100 kts | 183° |
| 2026-05-09 02:53 | 39.86490 | -83.25765 | 2992 ft | 99 kts | 183° |
| 2026-05-09 02:53 | 39.85802 | -83.25713 | 2989 ft | 99 kts | 182° |
| 2026-05-09 02:53 | 39.85119 | -83.25660 | 2988 ft | 98 kts | 182° |
| 2026-05-09 02:54 | 39.84437 | -83.25605 | 2988 ft | 98 kts | 183° |
| 2026-05-09 02:54 | 39.83754 | -83.25551 | 2989 ft | 99 kts | 183° |
| 2026-05-09 02:54 | 39.83071 | -83.25501 | 2991 ft | 98 kts | 183° |
| 2026-05-09 02:54 | 39.82387 | -83.25464 | 2990 ft | 98 kts | 183° |
| 2026-05-09 02:55 | 39.81702 | -83.25427 | 2989 ft | 98 kts | 182° |
| 2026-05-09 02:55 | 39.81017 | -83.25395 | 2991 ft | 99 kts | 182° |
| 2026-05-09 02:55 | 39.80337 | -83.25361 | 2991 ft | 99 kts | 182° |
| 2026-05-09 02:55 | 39.79648 | -83.25325 | 2991 ft | 99 kts | 182° |
| 2026-05-09 02:56 | 39.78956 | -83.25292 | 2990 ft | 99 kts | 182° |
| 2026-05-09 02:56 | 39.78269 | -83.25259 | 2989 ft | 99 kts | 182° |
| 2026-05-09 02:56 | 39.77575 | -83.25227 | 2989 ft | 99 kts | 182° |
| 2026-05-09 02:56 | 39.76885 | -83.25195 | 2988 ft | 99 kts | 182° |
| 2026-05-09 02:57 | 39.76195 | -83.25162 | 2983 ft | 99 kts | 182° |
| 2026-05-09 02:57 | 39.75506 | -83.25130 | 2987 ft | 99 kts | 183° |
| 2026-05-09 02:57 | 39.74816 | -83.25096 | 2986 ft | 99 kts | 182° |
| 2026-05-09 02:57 | 39.74128 | -83.25063 | 2985 ft | 99 kts | 182° |
| 2026-05-09 02:58 | 39.73437 | -83.25029 | 2986 ft | 99 kts | 183° |
| 2026-05-09 02:58 | 39.72747 | -83.24996 | 2985 ft | 99 kts | 183° |
| 2026-05-09 02:58 | 39.72067 | -83.24962 | 3007 ft | 98 kts | 182° |
| 2026-05-09 02:58 | 39.71383 | -83.24929 | 3007 ft | 98 kts | 182° |
| 2026-05-09 02:59 | 39.70705 | -83.24896 | 3009 ft | 99 kts | 182° |
| 2026-05-09 02:59 | 39.70014 | -83.24862 | 3008 ft | 99 kts | 182° |
| 2026-05-09 02:59 | 39.69324 | -83.24831 | 3007 ft | 99 kts | 183° |
| 2026-05-09 02:59 | 39.68637 | -83.24801 | 3005 ft | 99 kts | 183° |
| 2026-05-09 03:00 | 39.67951 | -83.24766 | 2996 ft | 99 kts | 183° |
| 2026-05-09 03:00 | 39.67266 | -83.24730 | 3004 ft | 98 kts | 183° |
| 2026-05-09 03:00 | 39.66583 | -83.24694 | 3002 ft | 98 kts | 183° |
| 2026-05-09 03:00 | 39.65902 | -83.24657 | 3001 ft | 98 kts | 183° |
| 2026-05-09 03:01 | 39.65220 | -83.24618 | 3003 ft | 98 kts | 183° |
| 2026-05-09 03:01 | 39.64568 | -83.24732 | 3001 ft | 95 kts | 213° |
| 2026-05-09 03:01 | 39.64036 | -83.25233 | 2995 ft | 95 kts | 232° |
| 2026-05-09 03:01 | 39.64091 | -83.26062 | 3006 ft | 106 kts | 301° |
| 2026-05-09 03:02 | 39.64558 | -83.26790 | 3011 ft | 106 kts | 302° |
| 2026-05-09 03:02 | 39.65040 | -83.27541 | 3010 ft | 107 kts | 303° |
| 2026-05-09 03:02 | 39.65510 | -83.28274 | 3011 ft | 107 kts | 303° |
| 2026-05-09 03:02 | 39.66058 | -83.28954 | 3002 ft | 115 kts | 333° |
| 2026-05-09 03:03 | 39.66862 | -83.28932 | 3012 ft | 119 kts | 2° |
| 2026-05-09 03:03 | 39.67687 | -83.28815 | 3012 ft | 120 kts | 3° |
| 2026-05-09 03:03 | 39.68516 | -83.28690 | 3010 ft | 120 kts | 3° |
| 2026-05-09 03:03 | 39.69347 | -83.28566 | 3011 ft | 120 kts | 3° |
| 2026-05-09 03:04 | 39.70171 | -83.28380 | 3013 ft | 121 kts | 10° |
| 2026-05-09 03:04 | 39.70996 | -83.28152 | 3014 ft | 121 kts | 9° |
| 2026-05-09 03:04 | 39.71816 | -83.27925 | 3015 ft | 121 kts | 9° |
| 2026-05-09 03:04 | 39.72638 | -83.27696 | 3016 ft | 121 kts | 10° |
| 2026-05-09 03:05 | 39.73408 | -83.27211 | 2901 ft | 123 kts | 27° |
| 2026-05-09 03:05 | 39.74138 | -83.26679 | 2770 ft | 118 kts | 30° |
| 2026-05-09 03:05 | 39.74830 | -83.26144 | 2716 ft | 112 kts | 30° |
| 2026-05-09 03:05 | 39.75506 | -83.25617 | 2715 ft | 114 kts | 31° |
| 2026-05-09 03:06 | 39.76191 | -83.25061 | 2718 ft | 118 kts | 31° |
| 2026-05-09 03:06 | 39.76895 | -83.24487 | 2720 ft | 120 kts | 34° |
| 2026-05-09 03:06 | 39.77602 | -83.23908 | 2721 ft | 121 kts | 30° |
| 2026-05-09 03:06 | 39.78317 | -83.23330 | 2723 ft | 121 kts | 31° |
| 2026-05-09 03:07 | 39.79021 | -83.22749 | 2722 ft | 121 kts | 31° |
| 2026-05-09 03:07 | 39.79735 | -83.22169 | 2724 ft | 121 kts | 31° |
| 2026-05-09 03:07 | 39.80460 | -83.21581 | 2724 ft | 121 kts | 31° |
| 2026-05-09 03:07 | 39.81169 | -83.21004 | 2726 ft | 122 kts | 32° |
| 2026-05-09 03:08 | 39.81890 | -83.20416 | 2685 ft | 124 kts | 32° |
| 2026-05-09 03:08 | 39.82630 | -83.19802 | 2536 ft | 125 kts | 31° |
| 2026-05-09 03:08 | 39.83350 | -83.19212 | 2375 ft | 118 kts | 30° |
| 2026-05-09 03:08 | 39.84029 | -83.18662 | 2211 ft | 112 kts | 30° |
| 2026-05-09 03:09 | 39.84676 | -83.18131 | 2070 ft | 110 kts | 30° |
| 2026-05-09 03:09 | 39.85331 | -83.17594 | 1922 ft | 112 kts | 30° |
| 2026-05-09 03:09 | 39.85990 | -83.17058 | 1763 ft | 111 kts | 31° |
| 2026-05-09 03:09 | 39.86630 | -83.16533 | 1608 ft | 110 kts | 32° |
| 2026-05-09 03:10 | 39.87278 | -83.16009 | 1453 ft | 108 kts | 32° |
| 2026-05-09 03:10 | 39.87908 | -83.15489 | 1301 ft | 103 kts | 33° |
| 2026-05-09 03:10 | 39.88492 | -83.15016 | 1164 ft | 95 kts | 32° |
| 2026-05-09 03:10 | 39.89038 | -83.14569 | 1070 ft | 83 kts | 32° |
| 2026-05-09 03:11 | 39.89479 | -83.14214 | 938 ft | 71 kts | 33° |
| 2026-05-09 03:11 | 39.89858 | -83.13905 | 905 ft | 50 kts | 33° |
| 2026-05-09 03:11 | 39.90000 | -83.13787 | 905 ft | 8 kts | 29° |
| 2026-05-09 03:11 | 39.90207 | -83.13617 | 907 ft | 61 kts | 32° |
| 2026-05-09 03:12 | 39.90654 | -83.13267 | 1020 ft | 80 kts | 32° |
| 2026-05-09 03:12 | 39.91110 | -83.12887 | 1260 ft | 80 kts | 36° |
| 2026-05-09 03:12 | 39.91591 | -83.12449 | 1441 ft | 89 kts | 34° |
| 2026-05-09 03:12 | 39.92134 | -83.12010 | 1604 ft | 96 kts | 32° |
| 2026-05-09 03:13 | 39.93343 | -83.11040 | 1932 ft | 106 kts | 31° |
| 2026-05-09 03:13 | 39.93980 | -83.10519 | 2094 ft | 109 kts | 31° |
| 2026-05-09 03:13 | 39.94622 | -83.09992 | 2247 ft | 112 kts | 31° |
| 2026-05-09 03:14 | 39.95290 | -83.09441 | 2403 ft | 114 kts | 31° |
| 2026-05-09 03:14 | 39.96008 | -83.09023 | 2548 ft | 114 kts | 8° |
| 2026-05-09 03:14 | 39.96762 | -83.08710 | 2699 ft | 115 kts | 15° |
| 2026-05-09 03:14 | 39.97528 | -83.08376 | 2850 ft | 116 kts | 16° |
| 2026-05-09 03:15 | 39.98299 | -83.08036 | 2999 ft | 117 kts | 15° |
| 2026-05-09 03:15 | 39.99076 | -83.07684 | 3149 ft | 118 kts | 15° |
| 2026-05-09 03:15 | 39.99860 | -83.07536 | 3291 ft | 115 kts | 354° |
| 2026-05-09 03:15 | 40.00672 | -83.07501 | 3440 ft | 116 kts | 355° |
| 2026-05-09 03:16 | 40.01503 | -83.07467 | 3517 ft | 125 kts | 356° |
| 2026-05-09 03:16 | 40.02399 | -83.07437 | 3518 ft | 133 kts | 356° |
| 2026-05-09 03:16 | 40.03331 | -83.07407 | 3364 ft | 132 kts | 356° |
| 2026-05-09 03:16 | 40.04243 | -83.07383 | 3202 ft | 130 kts | 356° |
| 2026-05-09 03:17 | 40.05100 | -83.07091 | 3057 ft | 135 kts | 35° |
| 2026-05-09 03:17 | 40.05515 | -83.06041 | 2907 ft | 129 kts | 82° |
| 2026-05-09 03:17 | 40.05715 | -83.04918 | 2741 ft | 126 kts | 81° |
| 2026-05-09 03:17 | 40.05902 | -83.03802 | 2510 ft | 123 kts | 81° |
| 2026-05-09 03:18 | 40.06182 | -83.02851 | 2454 ft | 109 kts | 39° |
| 2026-05-09 03:18 | 40.06807 | -83.02671 | 2538 ft | 80 kts | 353° |
| 2026-05-09 03:18 | 40.07335 | -83.02836 | 2340 ft | 78 kts | 309° |
| 2026-05-09 03:18 | 40.07605 | -83.03441 | 1947 ft | 79 kts | 282° |
| 2026-05-09 03:19 | 40.07708 | -83.04137 | 1590 ft | 74 kts | 277° |
| 2026-05-09 03:19 | 40.07769 | -83.04802 | 1328 ft | 74 kts | 278° |
| 2026-05-09 03:19 | 40.07790 | -83.05467 | 1129 ft | 73 kts | 272° |
| 2026-05-09 03:19 | 40.07788 | -83.06125 | 963 ft | 72 kts | 269° |
| 2026-05-09 03:20 | 40.07772 | -83.06741 | 898 ft | 59 kts | 267° |
| 2026-05-09 03:20 | 40.07759 | -83.07066 | 903 ft | 21 kts | 266° |
| 2026-05-09 03:20 | 40.07753 | -83.07219 | 908 ft | 14 kts | 269° |
| 2026-05-09 03:20 | 40.07748 | -83.07300 | 909 ft | 13 kts | 254° |
| 2026-05-09 03:21 | 40.07658 | -83.07338 | 908 ft | 0 kts | 178° |
| 2026-05-09 03:21 | 40.07650 | -83.07337 | 908 ft | 6 kts | 176° |
| 2026-05-09 03:21 | 40.07613 | -83.07340 | 907 ft | 6 kts | 217° |
| 2026-05-09 03:22 | 40.07601 | -83.07391 | 908 ft | 6 kts | 224° |
| 2026-05-09 03:22 | 40.07571 | -83.07427 | 909 ft | 7 kts | 264° |
| 2026-05-09 03:22 | 40.07579 | -83.07455 | 909 ft | 0 kts | 356° |